sensor_id;sensor_type;location;lat;lon;timestamp;P1;P2;P0
46681;PMS5003;34101;53.430;-2.224;2023-11-22T00:00:54;16;16;
46681;PMS5003;34101;53.430;-2.224;2023-11-22T00:03:21;18;17;
46681;PMS5003;34101;53.430;-2.224;2023-11-22T00:05:49;18;18;
46681;PMS5003;34101;53.430;-2.224;2023-11-22T00:08:17;15;15;
46681;PMS5003;34101;53.430;-2.224;2023-11-22T00:10:44;18;16;
46681;PMS5003;34101;53.430;-2.224;2023-11-22T00:13:11;16;16;
46681;PMS5003;34101;53.430;-2.224;2023-11-22T00:15:39;20;20;
46681;PMS5003;34101;53.430;-2.224;2023-11-22T00:18:07;20;20;
46681;PMS5003;34101;53.430;-2.224;2023-11-22T00:20:34;19;18;
46681;PMS5003;34101;53.430;-2.224;2023-11-22T00:23:02;17;17;
46681;PMS5003;34101;53.430;-2.224;2023-11-22T00:25:29;14;14;
46681;PMS5003;34101;53.430;-2.224;2023-11-22T00:27:56;22;21;
46681;PMS5003;34101;53.430;-2.224;2023-11-22T00:30:24;16;15;
46681;PMS5003;34101;53.430;-2.224;2023-11-22T00:32:51;17;15;
46681;PMS5003;34101;53.430;-2.224;2023-11-22T00:35:19;17;17;
46681;PMS5003;34101;53.430;-2.224;2023-11-22T00:37:46;18;17;
46681;PMS5003;34101;53.430;-2.224;2023-11-22T00:40:14;19;19;
46681;PMS5003;34101;53.430;-2.224;2023-11-22T00:42:42;18;18;
46681;PMS5003;34101;53.430;-2.224;2023-11-22T00:45:10;15;15;
46681;PMS5003;34101;53.430;-2.224;2023-11-22T00:47:38;15;15;
46681;PMS5003;34101;53.430;-2.224;2023-11-22T00:50:06;16;16;
46681;PMS5003;34101;53.430;-2.224;2023-11-22T00:52:35;21;20;
46681;PMS5003;34101;53.430;-2.224;2023-11-22T00:55:02;17;16;
46681;PMS5003;34101;53.430;-2.224;2023-11-22T00:57:30;16;14;
46681;PMS5003;34101;53.430;-2.224;2023-11-22T00:59:58;14;14;
46681;PMS5003;34101;53.430;-2.224;2023-11-22T01:02:25;16;15;
46681;PMS5003;34101;53.430;-2.224;2023-11-22T01:04:52;17;17;
46681;PMS5003;34101;53.430;-2.224;2023-11-22T01:07:19;15;14;
46681;PMS5003;34101;53.430;-2.224;2023-11-22T01:09:47;18;17;
46681;PMS5003;34101;53.430;-2.224;2023-11-22T01:12:14;17;17;
46681;PMS5003;34101;53.430;-2.224;2023-11-22T01:14:42;17;17;
46681;PMS5003;34101;53.430;-2.224;2023-11-22T01:17:09;19;19;
46681;PMS5003;34101;53.430;-2.224;2023-11-22T01:19:37;21;20;
46681;PMS5003;34101;53.430;-2.224;2023-11-22T01:22:04;16;16;
46681;PMS5003;34101;53.430;-2.224;2023-11-22T01:24:33;18;16;
46681;PMS5003;34101;53.430;-2.224;2023-11-22T01:27:00;20;19;
46681;PMS5003;34101;53.430;-2.224;2023-11-22T01:29:28;15;15;
46681;PMS5003;34101;53.430;-2.224;2023-11-22T01:31:55;17;17;
46681;PMS5003;34101;53.430;-2.224;2023-11-22T01:34:23;16;15;
46681;PMS5003;34101;53.430;-2.224;2023-11-22T01:36:50;19;18;
46681;PMS5003;34101;53.430;-2.224;2023-11-22T01:39:17;17;15;
46681;PMS5003;34101;53.430;-2.224;2023-11-22T01:41:45;15;15;
46681;PMS5003;34101;53.430;-2.224;2023-11-22T01:44:13;17;15;
46681;PMS5003;34101;53.430;-2.224;2023-11-22T01:46:41;21;21;
46681;PMS5003;34101;53.430;-2.224;2023-11-22T01:49:10;14;14;
46681;PMS5003;34101;53.430;-2.224;2023-11-22T01:51:38;15;15;
46681;PMS5003;34101;53.430;-2.224;2023-11-22T01:54:08;18;16;
46681;PMS5003;34101;53.430;-2.224;2023-11-22T01:56:36;13;13;
46681;PMS5003;34101;53.430;-2.224;2023-11-22T01:59:05;15;14;
46681;PMS5003;34101;53.430;-2.224;2023-11-22T02:01:34;21;20;
46681;PMS5003;34101;53.430;-2.224;2023-11-22T02:04:01;20;18;
46681;PMS5003;34101;53.430;-2.224;2023-11-22T02:06:29;17;15;
46681;PMS5003;34101;53.430;-2.224;2023-11-22T02:08:56;14;14;
46681;PMS5003;34101;53.430;-2.224;2023-11-22T02:11:24;16;14;
46681;PMS5003;34101;53.430;-2.224;2023-11-22T02:13:51;14;14;
46681;PMS5003;34101;53.430;-2.224;2023-11-22T02:16:19;15;15;
46681;PMS5003;34101;53.430;-2.224;2023-11-22T02:18:48;14;13;
46681;PMS5003;34101;53.430;-2.224;2023-11-22T02:21:16;13;13;
46681;PMS5003;34101;53.430;-2.224;2023-11-22T02:23:43;12;12;
46681;PMS5003;34101;53.430;-2.224;2023-11-22T02:26:11;13;11;
46681;PMS5003;34101;53.430;-2.224;2023-11-22T02:28:38;13;12;
46681;PMS5003;34101;53.430;-2.224;2023-11-22T02:31:06;15;13;
46681;PMS5003;34101;53.430;-2.224;2023-11-22T02:33:39;11;11;
46681;PMS5003;34101;53.430;-2.224;2023-11-22T02:36:07;15;15;
46681;PMS5003;34101;53.430;-2.224;2023-11-22T02:38:35;12;12;
46681;PMS5003;34101;53.430;-2.224;2023-11-22T02:41:02;10;10;
46681;PMS5003;34101;53.430;-2.224;2023-11-22T02:43:30;11;11;
46681;PMS5003;34101;53.430;-2.224;2023-11-22T02:45:58;14;14;
46681;PMS5003;34101;53.430;-2.224;2023-11-22T02:48:26;12;12;
46681;PMS5003;34101;53.430;-2.224;2023-11-22T02:50:53;10;10;
46681;PMS5003;34101;53.430;-2.224;2023-11-22T02:53:21;11;11;
46681;PMS5003;34101;53.430;-2.224;2023-11-22T02:55:48;10;10;
46681;PMS5003;34101;53.430;-2.224;2023-11-22T02:58:15;10;10;
46681;PMS5003;34101;53.430;-2.224;2023-11-22T03:00:43;12;10;
46681;PMS5003;34101;53.430;-2.224;2023-11-22T03:03:11;9;9;
46681;PMS5003;34101;53.430;-2.224;2023-11-22T03:05:40;13;12;
46681;PMS5003;34101;53.430;-2.224;2023-11-22T03:08:08;12;11;
46681;PMS5003;34101;53.430;-2.224;2023-11-22T03:10:35;11;11;
46681;PMS5003;34101;53.430;-2.224;2023-11-22T03:13:02;10;10;
46681;PMS5003;34101;53.430;-2.224;2023-11-22T03:15:30;11;11;
46681;PMS5003;34101;53.430;-2.224;2023-11-22T03:17:57;11;11;
46681;PMS5003;34101;53.430;-2.224;2023-11-22T03:20:25;10;9;
46681;PMS5003;34101;53.430;-2.224;2023-11-22T03:22:53;9;9;
46681;PMS5003;34101;53.430;-2.224;2023-11-22T03:25:20;8;8;
46681;PMS5003;34101;53.430;-2.224;2023-11-22T03:27:48;10;10;
46681;PMS5003;34101;53.430;-2.224;2023-11-22T03:30:16;11;9;
46681;PMS5003;34101;53.430;-2.224;2023-11-22T03:32:44;11;9;
46681;PMS5003;34101;53.430;-2.224;2023-11-22T03:35:11;11;11;
46681;PMS5003;34101;53.430;-2.224;2023-11-22T03:37:39;8;8;
46681;PMS5003;34101;53.430;-2.224;2023-11-22T03:40:07;11;9;
46681;PMS5003;34101;53.430;-2.224;2023-11-22T03:42:36;10;10;
46681;PMS5003;34101;53.430;-2.224;2023-11-22T03:45:05;9;8;
46681;PMS5003;34101;53.430;-2.224;2023-11-22T03:47:34;9;9;
46681;PMS5003;34101;53.430;-2.224;2023-11-22T03:50:01;8;8;
46681;PMS5003;34101;53.430;-2.224;2023-11-22T03:52:28;9;9;
46681;PMS5003;34101;53.430;-2.224;2023-11-22T03:54:56;7;7;
46681;PMS5003;34101;53.430;-2.224;2023-11-22T03:57:23;10;10;
46681;PMS5003;34101;53.430;-2.224;2023-11-22T03:59:50;6;6;
46681;PMS5003;34101;53.430;-2.224;2023-11-22T04:02:18;8;8;
46681;PMS5003;34101;53.430;-2.224;2023-11-22T04:04:45;8;8;
46681;PMS5003;34101;53.430;-2.224;2023-11-22T04:07:13;8;8;
46681;PMS5003;34101;53.430;-2.224;2023-11-22T04:09:40;7;7;
46681;PMS5003;34101;53.430;-2.224;2023-11-22T04:12:08;7;7;
46681;PMS5003;34101;53.430;-2.224;2023-11-22T04:14:35;8;7;
46681;PMS5003;34101;53.430;-2.224;2023-11-22T04:17:03;9;7;
46681;PMS5003;34101;53.430;-2.224;2023-11-22T04:19:31;11;9;
46681;PMS5003;34101;53.430;-2.224;2023-11-22T04:21:58;8;6;
46681;PMS5003;34101;53.430;-2.224;2023-11-22T04:24:26;8;8;
46681;PMS5003;34101;53.430;-2.224;2023-11-22T04:26:54;8;7;
46681;PMS5003;34101;53.430;-2.224;2023-11-22T04:29:21;8;7;
46681;PMS5003;34101;53.430;-2.224;2023-11-22T04:31:49;7;7;
46681;PMS5003;34101;53.430;-2.224;2023-11-22T04:34:16;8;7;
46681;PMS5003;34101;53.430;-2.224;2023-11-22T04:36:43;8;6;
46681;PMS5003;34101;53.430;-2.224;2023-11-22T04:39:11;7;7;
46681;PMS5003;34101;53.430;-2.224;2023-11-22T04:41:38;6;6;
46681;PMS5003;34101;53.430;-2.224;2023-11-22T04:44:06;5;5;
46681;PMS5003;34101;53.430;-2.224;2023-11-22T04:46:34;6;6;
46681;PMS5003;34101;53.430;-2.224;2023-11-22T04:49:02;3;3;
46681;PMS5003;34101;53.430;-2.224;2023-11-22T04:51:30;6;6;
46681;PMS5003;34101;53.430;-2.224;2023-11-22T04:53:57;7;7;
46681;PMS5003;34101;53.430;-2.224;2023-11-22T04:56:25;6;5;
46681;PMS5003;34101;53.430;-2.224;2023-11-22T04:58:52;6;6;
46681;PMS5003;34101;53.430;-2.224;2023-11-22T05:01:19;5;5;
46681;PMS5003;34101;53.430;-2.224;2023-11-22T05:03:47;5;5;
46681;PMS5003;34101;53.430;-2.224;2023-11-22T05:06:16;7;6;
46681;PMS5003;34101;53.430;-2.224;2023-11-22T05:08:43;5;5;
46681;PMS5003;34101;53.430;-2.224;2023-11-22T05:11:11;5;5;
46681;PMS5003;34101;53.430;-2.224;2023-11-22T05:13:39;4;4;
46681;PMS5003;34101;53.430;-2.224;2023-11-22T05:16:07;4;4;
46681;PMS5003;34101;53.430;-2.224;2023-11-22T05:18:35;6;6;
46681;PMS5003;34101;53.430;-2.224;2023-11-22T05:21:02;5;5;
46681;PMS5003;34101;53.430;-2.224;2023-11-22T05:23:30;4;4;
46681;PMS5003;34101;53.430;-2.224;2023-11-22T05:25:57;4;4;
46681;PMS5003;34101;53.430;-2.224;2023-11-22T05:28:25;4;4;
46681;PMS5003;34101;53.430;-2.224;2023-11-22T05:30:52;5;4;
46681;PMS5003;34101;53.430;-2.224;2023-11-22T05:33:19;7;6;
46681;PMS5003;34101;53.430;-2.224;2023-11-22T05:35:47;5;5;
46681;PMS5003;34101;53.430;-2.224;2023-11-22T05:38:14;5;5;
46681;PMS5003;34101;53.430;-2.224;2023-11-22T05:40:42;5;5;
46681;PMS5003;34101;53.430;-2.224;2023-11-22T05:43:09;4;4;
46681;PMS5003;34101;53.430;-2.224;2023-11-22T05:45:37;9;6;
46681;PMS5003;34101;53.430;-2.224;2023-11-22T05:48:04;4;4;
46681;PMS5003;34101;53.430;-2.224;2023-11-22T05:50:31;4;4;
46681;PMS5003;34101;53.430;-2.224;2023-11-22T05:52:59;6;5;
46681;PMS5003;34101;53.430;-2.224;2023-11-22T05:55:26;4;4;
46681;PMS5003;34101;53.430;-2.224;2023-11-22T05:57:54;6;6;
46681;PMS5003;34101;53.430;-2.224;2023-11-22T06:00:21;5;5;
46681;PMS5003;34101;53.430;-2.224;2023-11-22T06:02:49;6;6;
46681;PMS5003;34101;53.430;-2.224;2023-11-22T06:05:17;5;5;
46681;PMS5003;34101;53.430;-2.224;2023-11-22T06:07:44;7;6;
46681;PMS5003;34101;53.430;-2.224;2023-11-22T06:10:12;5;5;
46681;PMS5003;34101;53.430;-2.224;2023-11-22T06:12:39;7;7;
46681;PMS5003;34101;53.430;-2.224;2023-11-22T06:15:07;6;6;
46681;PMS5003;34101;53.430;-2.224;2023-11-22T06:17:35;7;6;
46681;PMS5003;34101;53.430;-2.224;2023-11-22T06:20:03;7;5;
46681;PMS5003;34101;53.430;-2.224;2023-11-22T06:22:31;7;7;
46681;PMS5003;34101;53.430;-2.224;2023-11-22T06:24:59;6;5;
46681;PMS5003;34101;53.430;-2.224;2023-11-22T06:27:26;9;8;
46681;PMS5003;34101;53.430;-2.224;2023-11-22T06:29:53;6;6;
46681;PMS5003;34101;53.430;-2.224;2023-11-22T06:32:21;5;5;
46681;PMS5003;34101;53.430;-2.224;2023-11-22T06:34:48;5;4;
46681;PMS5003;34101;53.430;-2.224;2023-11-22T06:37:17;5;5;
46681;PMS5003;34101;53.430;-2.224;2023-11-22T06:39:44;5;5;
46681;PMS5003;34101;53.430;-2.224;2023-11-22T06:42:12;7;5;
46681;PMS5003;34101;53.430;-2.224;2023-11-22T06:44:40;5;5;
46681;PMS5003;34101;53.430;-2.224;2023-11-22T06:47:08;6;5;
46681;PMS5003;34101;53.430;-2.224;2023-11-22T06:49:35;5;4;
46681;PMS5003;34101;53.430;-2.224;2023-11-22T06:52:03;5;5;
46681;PMS5003;34101;53.430;-2.224;2023-11-22T06:54:31;6;6;
46681;PMS5003;34101;53.430;-2.224;2023-11-22T06:56:58;5;4;
46681;PMS5003;34101;53.430;-2.224;2023-11-22T06:59:26;5;5;
46681;PMS5003;34101;53.430;-2.224;2023-11-22T07:01:53;7;6;
46681;PMS5003;34101;53.430;-2.224;2023-11-22T07:04:21;9;6;
46681;PMS5003;34101;53.430;-2.224;2023-11-22T07:06:49;4;4;
46681;PMS5003;34101;53.430;-2.224;2023-11-22T07:09:16;4;4;
46681;PMS5003;34101;53.430;-2.224;2023-11-22T07:11:44;5;5;
46681;PMS5003;34101;53.430;-2.224;2023-11-22T07:14:11;6;5;
46681;PMS5003;34101;53.430;-2.224;2023-11-22T07:16:38;6;5;
46681;PMS5003;34101;53.430;-2.224;2023-11-22T07:19:06;5;5;
46681;PMS5003;34101;53.430;-2.224;2023-11-22T07:21:34;4;4;
46681;PMS5003;34101;53.430;-2.224;2023-11-22T07:24:01;4;4;
46681;PMS5003;34101;53.430;-2.224;2023-11-22T07:26:30;6;6;
46681;PMS5003;34101;53.430;-2.224;2023-11-22T07:28:57;5;5;
46681;PMS5003;34101;53.430;-2.224;2023-11-22T07:31:24;7;7;
46681;PMS5003;34101;53.430;-2.224;2023-11-22T07:33:52;7;6;
46681;PMS5003;34101;53.430;-2.224;2023-11-22T07:36:19;7;5;
46681;PMS5003;34101;53.430;-2.224;2023-11-22T07:38:46;7;7;
46681;PMS5003;34101;53.430;-2.224;2023-11-22T07:41:14;6;4;
46681;PMS5003;34101;53.430;-2.224;2023-11-22T07:43:41;5;5;
46681;PMS5003;34101;53.430;-2.224;2023-11-22T07:46:09;5;5;
46681;PMS5003;34101;53.430;-2.224;2023-11-22T07:48:38;6;6;
46681;PMS5003;34101;53.430;-2.224;2023-11-22T07:51:05;5;4;
46681;PMS5003;34101;53.430;-2.224;2023-11-22T07:53:33;5;4;
46681;PMS5003;34101;53.430;-2.224;2023-11-22T07:56:01;4;4;
46681;PMS5003;34101;53.430;-2.224;2023-11-22T07:58:28;3;3;
46681;PMS5003;34101;53.430;-2.224;2023-11-22T08:00:55;6;4;
46681;PMS5003;34101;53.430;-2.224;2023-11-22T08:03:23;3;3;
46681;PMS5003;34101;53.430;-2.224;2023-11-22T08:05:50;4;3;
46681;PMS5003;34101;53.430;-2.224;2023-11-22T08:08:18;4;4;
46681;PMS5003;34101;53.430;-2.224;2023-11-22T08:10:45;5;4;
46681;PMS5003;34101;53.430;-2.224;2023-11-22T08:13:15;4;4;
46681;PMS5003;34101;53.430;-2.224;2023-11-22T08:15:42;4;4;
46681;PMS5003;34101;53.430;-2.224;2023-11-22T08:18:10;4;4;
46681;PMS5003;34101;53.430;-2.224;2023-11-22T08:20:38;3;3;
46681;PMS5003;34101;53.430;-2.224;2023-11-22T08:23:06;5;4;
46681;PMS5003;34101;53.430;-2.224;2023-11-22T08:25:34;3;3;
46681;PMS5003;34101;53.430;-2.224;2023-11-22T08:28:02;5;5;
46681;PMS5003;34101;53.430;-2.224;2023-11-22T08:30:30;4;4;
46681;PMS5003;34101;53.430;-2.224;2023-11-22T08:32:58;5;5;
46681;PMS5003;34101;53.430;-2.224;2023-11-22T08:35:25;4;4;
46681;PMS5003;34101;53.430;-2.224;2023-11-22T08:37:53;5;5;
46681;PMS5003;34101;53.430;-2.224;2023-11-22T08:40:20;3;3;
46681;PMS5003;34101;53.430;-2.224;2023-11-22T08:42:47;3;3;
46681;PMS5003;34101;53.430;-2.224;2023-11-22T08:45:16;3;3;
46681;PMS5003;34101;53.430;-2.224;2023-11-22T08:47:43;6;5;
46681;PMS5003;34101;53.430;-2.224;2023-11-22T08:50:10;3;3;
46681;PMS5003;34101;53.430;-2.224;2023-11-22T08:52:38;6;6;
46681;PMS5003;34101;53.430;-2.224;2023-11-22T08:55:07;5;5;
46681;PMS5003;34101;53.430;-2.224;2023-11-22T08:57:35;3;3;
46681;PMS5003;34101;53.430;-2.224;2023-11-22T09:00:04;4;3;
46681;PMS5003;34101;53.430;-2.224;2023-11-22T09:02:33;5;3;
46681;PMS5003;34101;53.430;-2.224;2023-11-22T09:05:00;5;4;
46681;PMS5003;34101;53.430;-2.224;2023-11-22T09:07:28;3;3;
46681;PMS5003;34101;53.430;-2.224;2023-11-22T09:09:55;6;5;
46681;PMS5003;34101;53.430;-2.224;2023-11-22T09:12:23;3;3;
46681;PMS5003;34101;53.430;-2.224;2023-11-22T09:14:50;4;4;
46681;PMS5003;34101;53.430;-2.224;2023-11-22T09:17:18;5;5;
46681;PMS5003;34101;53.430;-2.224;2023-11-22T09:19:46;3;3;
46681;PMS5003;34101;53.430;-2.224;2023-11-22T09:22:14;3;3;
46681;PMS5003;34101;53.430;-2.224;2023-11-22T09:24:41;5;5;
46681;PMS5003;34101;53.430;-2.224;2023-11-22T09:27:09;5;4;
46681;PMS5003;34101;53.430;-2.224;2023-11-22T09:29:36;4;4;
46681;PMS5003;34101;53.430;-2.224;2023-11-22T09:32:04;3;3;
46681;PMS5003;34101;53.430;-2.224;2023-11-22T09:34:32;6;5;
46681;PMS5003;34101;53.430;-2.224;2023-11-22T09:36:59;7;5;
46681;PMS5003;34101;53.430;-2.224;2023-11-22T09:39:27;4;4;
46681;PMS5003;34101;53.430;-2.224;2023-11-22T09:41:56;5;5;
46681;PMS5003;34101;53.430;-2.224;2023-11-22T09:44:23;7;5;
46681;PMS5003;34101;53.430;-2.224;2023-11-22T09:46:50;4;4;
46681;PMS5003;34101;53.430;-2.224;2023-11-22T09:49:20;5;4;
46681;PMS5003;34101;53.430;-2.224;2023-11-22T09:51:56;5;5;
46681;PMS5003;34101;53.430;-2.224;2023-11-22T09:54:29;6;3;
46681;PMS5003;34101;53.430;-2.224;2023-11-22T09:56:58;6;4;
46681;PMS5003;34101;53.430;-2.224;2023-11-22T09:59:27;5;4;
46681;PMS5003;34101;53.430;-2.224;2023-11-22T10:01:56;4;4;
46681;PMS5003;34101;53.430;-2.224;2023-11-22T10:04:23;5;5;
46681;PMS5003;34101;53.430;-2.224;2023-11-22T10:06:50;5;4;
46681;PMS5003;34101;53.430;-2.224;2023-11-22T10:09:18;7;4;
46681;PMS5003;34101;53.430;-2.224;2023-11-22T10:11:46;6;5;
46681;PMS5003;34101;53.430;-2.224;2023-11-22T10:14:19;5;5;
46681;PMS5003;34101;53.430;-2.224;2023-11-22T10:16:57;5;5;
46681;PMS5003;34101;53.430;-2.224;2023-11-22T10:19:25;6;6;
46681;PMS5003;34101;53.430;-2.224;2023-11-22T10:22:02;6;4;
46681;PMS5003;34101;53.430;-2.224;2023-11-22T10:24:31;6;6;
46681;PMS5003;34101;53.430;-2.224;2023-11-22T10:26:59;6;4;
46681;PMS5003;34101;53.430;-2.224;2023-11-22T10:29:27;6;5;
46681;PMS5003;34101;53.430;-2.224;2023-11-22T10:31:55;6;6;
46681;PMS5003;34101;53.430;-2.224;2023-11-22T10:34:23;6;6;
46681;PMS5003;34101;53.430;-2.224;2023-11-22T10:36:51;7;6;
46681;PMS5003;34101;53.430;-2.224;2023-11-22T10:39:19;4;4;
46681;PMS5003;34101;53.430;-2.224;2023-11-22T10:41:46;6;6;
46681;PMS5003;34101;53.430;-2.224;2023-11-22T10:44:13;9;7;
46681;PMS5003;34101;53.430;-2.224;2023-11-22T10:46:43;6;6;
46681;PMS5003;34101;53.430;-2.224;2023-11-22T10:49:11;7;7;
46681;PMS5003;34101;53.430;-2.224;2023-11-22T10:51:39;6;6;
46681;PMS5003;34101;53.430;-2.224;2023-11-22T10:54:07;7;6;
46681;PMS5003;34101;53.430;-2.224;2023-11-22T10:56:36;6;6;
46681;PMS5003;34101;53.430;-2.224;2023-11-22T10:59:06;6;6;
46681;PMS5003;34101;53.430;-2.224;2023-11-22T11:01:36;5;5;
46681;PMS5003;34101;53.430;-2.224;2023-11-22T11:04:09;7;5;
46681;PMS5003;34101;53.430;-2.224;2023-11-22T11:06:44;6;5;
46681;PMS5003;34101;53.430;-2.224;2023-11-22T11:09:17;6;6;
46681;PMS5003;34101;53.430;-2.224;2023-11-22T11:11:45;6;6;
46681;PMS5003;34101;53.430;-2.224;2023-11-22T11:14:14;5;5;
46681;PMS5003;34101;53.430;-2.224;2023-11-22T11:16:42;6;6;
46681;PMS5003;34101;53.430;-2.224;2023-11-22T11:19:11;11;11;
46681;PMS5003;34101;53.430;-2.224;2023-11-22T11:21:40;7;7;
46681;PMS5003;34101;53.430;-2.224;2023-11-22T11:24:07;7;7;
46681;PMS5003;34101;53.430;-2.224;2023-11-22T11:26:35;7;6;
46681;PMS5003;34101;53.430;-2.224;2023-11-22T11:29:03;6;6;
46681;PMS5003;34101;53.430;-2.224;2023-11-22T11:31:31;9;9;
46681;PMS5003;34101;53.430;-2.224;2023-11-22T11:33:59;7;7;
46681;PMS5003;34101;53.430;-2.224;2023-11-22T11:36:27;10;8;
46681;PMS5003;34101;53.430;-2.224;2023-11-22T11:38:55;8;8;
46681;PMS5003;34101;53.430;-2.224;2023-11-22T11:41:25;5;5;
46681;PMS5003;34101;53.430;-2.224;2023-11-22T11:43:53;5;5;
46681;PMS5003;34101;53.430;-2.224;2023-11-22T11:46:23;7;7;
46681;PMS5003;34101;53.430;-2.224;2023-11-22T11:48:53;5;5;
46681;PMS5003;34101;53.430;-2.224;2023-11-22T11:51:21;8;6;
46681;PMS5003;34101;53.430;-2.224;2023-11-22T11:53:50;5;5;
46681;PMS5003;34101;53.430;-2.224;2023-11-22T11:56:18;4;4;
46681;PMS5003;34101;53.430;-2.224;2023-11-22T11:58:46;5;5;
46681;PMS5003;34101;53.430;-2.224;2023-11-22T12:01:14;6;4;
46681;PMS5003;34101;53.430;-2.224;2023-11-22T12:03:43;2;2;
46681;PMS5003;34101;53.430;-2.224;2023-11-22T12:06:13;3;3;
46681;PMS5003;34101;53.430;-2.224;2023-11-22T12:08:41;6;5;
46681;PMS5003;34101;53.430;-2.224;2023-11-22T12:11:09;4;2;
46681;PMS5003;34101;53.430;-2.224;2023-11-22T12:13:36;5;2;
46681;PMS5003;34101;53.430;-2.224;2023-11-22T12:16:05;2;2;
46681;PMS5003;34101;53.430;-2.224;2023-11-22T12:18:39;1;1;
46681;PMS5003;34101;53.430;-2.224;2023-11-22T12:21:07;3;3;
46681;PMS5003;34101;53.430;-2.224;2023-11-22T12:23:35;1;1;
46681;PMS5003;34101;53.430;-2.224;2023-11-22T12:26:03;3;1;
46681;PMS5003;34101;53.430;-2.224;2023-11-22T12:28:31;2;2;
46681;PMS5003;34101;53.430;-2.224;2023-11-22T12:31:06;2;2;
46681;PMS5003;34101;53.430;-2.224;2023-11-22T12:33:35;1;1;
46681;PMS5003;34101;53.430;-2.224;2023-11-22T12:36:04;2;2;
46681;PMS5003;34101;53.430;-2.224;2023-11-22T12:38:34;2;2;
46681;PMS5003;34101;53.430;-2.224;2023-11-22T12:41:03;3;1;
46681;PMS5003;34101;53.430;-2.224;2023-11-22T12:43:32;1;1;
46681;PMS5003;34101;53.430;-2.224;2023-11-22T12:46:00;1;1;
46681;PMS5003;34101;53.430;-2.224;2023-11-22T12:48:28;1;1;
46681;PMS5003;34101;53.430;-2.224;2023-11-22T12:50:56;1;1;
46681;PMS5003;34101;53.430;-2.224;2023-11-22T12:53:24;0;0;
46681;PMS5003;34101;53.430;-2.224;2023-11-22T12:55:53;1;1;
46681;PMS5003;34101;53.430;-2.224;2023-11-22T12:58:22;0;0;
46681;PMS5003;34101;53.430;-2.224;2023-11-22T13:00:51;1;1;
46681;PMS5003;34101;53.430;-2.224;2023-11-22T13:03:20;1;1;
46681;PMS5003;34101;53.430;-2.224;2023-11-22T13:05:47;1;1;
46681;PMS5003;34101;53.430;-2.224;2023-11-22T13:08:15;0;0;
46681;PMS5003;34101;53.430;-2.224;2023-11-22T13:10:43;0;0;
46681;PMS5003;34101;53.430;-2.224;2023-11-22T13:13:11;1;1;
46681;PMS5003;34101;53.430;-2.224;2023-11-22T13:15:38;2;1;
46681;PMS5003;34101;53.430;-2.224;2023-11-22T13:18:06;1;1;
46681;PMS5003;34101;53.430;-2.224;2023-11-22T13:20:34;0;0;
46681;PMS5003;34101;53.430;-2.224;2023-11-22T13:23:01;1;1;
46681;PMS5003;34101;53.430;-2.224;2023-11-22T13:25:29;1;0;
46681;PMS5003;34101;53.430;-2.224;2023-11-22T13:27:56;0;0;
46681;PMS5003;34101;53.430;-2.224;2023-11-22T13:30:23;0;0;
46681;PMS5003;34101;53.430;-2.224;2023-11-22T13:32:51;1;1;
46681;PMS5003;34101;53.430;-2.224;2023-11-22T13:35:19;0;0;
46681;PMS5003;34101;53.430;-2.224;2023-11-22T13:37:47;1;1;
46681;PMS5003;34101;53.430;-2.224;2023-11-22T13:40:15;2;1;
46681;PMS5003;34101;53.430;-2.224;2023-11-22T13:42:45;0;0;
46681;PMS5003;34101;53.430;-2.224;2023-11-22T13:45:14;0;0;
46681;PMS5003;34101;53.430;-2.224;2023-11-22T13:47:42;1;1;
46681;PMS5003;34101;53.430;-2.224;2023-11-22T13:50:10;1;1;
46681;PMS5003;34101;53.430;-2.224;2023-11-22T13:52:38;3;2;
46681;PMS5003;34101;53.430;-2.224;2023-11-22T13:55:06;0;0;
46681;PMS5003;34101;53.430;-2.224;2023-11-22T13:57:35;1;1;
46681;PMS5003;34101;53.430;-2.224;2023-11-22T14:00:03;0;0;
46681;PMS5003;34101;53.430;-2.224;2023-11-22T14:02:32;1;1;
46681;PMS5003;34101;53.430;-2.224;2023-11-22T14:05:00;2;2;
46681;PMS5003;34101;53.430;-2.224;2023-11-22T14:07:27;2;2;
46681;PMS5003;34101;53.430;-2.224;2023-11-22T14:09:54;0;0;
46681;PMS5003;34101;53.430;-2.224;2023-11-22T14:12:21;1;1;
46681;PMS5003;34101;53.430;-2.224;2023-11-22T14:14:49;0;0;
46681;PMS5003;34101;53.430;-2.224;2023-11-22T14:17:16;1;1;
46681;PMS5003;34101;53.430;-2.224;2023-11-22T14:19:43;2;2;
46681;PMS5003;34101;53.430;-2.224;2023-11-22T14:22:11;1;1;
46681;PMS5003;34101;53.430;-2.224;2023-11-22T14:24:38;1;1;
46681;PMS5003;34101;53.430;-2.224;2023-11-22T14:27:06;1;1;
46681;PMS5003;34101;53.430;-2.224;2023-11-22T14:29:34;1;1;
46681;PMS5003;34101;53.430;-2.224;2023-11-22T14:32:01;4;2;
46681;PMS5003;34101;53.430;-2.224;2023-11-22T14:34:29;3;3;
46681;PMS5003;34101;53.430;-2.224;2023-11-22T14:36:57;1;1;
46681;PMS5003;34101;53.430;-2.224;2023-11-22T14:39:25;2;2;
46681;PMS5003;34101;53.430;-2.224;2023-11-22T14:41:52;3;1;
46681;PMS5003;34101;53.430;-2.224;2023-11-22T14:44:20;2;2;
46681;PMS5003;34101;53.430;-2.224;2023-11-22T14:46:47;1;1;
46681;PMS5003;34101;53.430;-2.224;2023-11-22T14:49:15;4;2;
46681;PMS5003;34101;53.430;-2.224;2023-11-22T14:51:42;1;1;
46681;PMS5003;34101;53.430;-2.224;2023-11-22T14:54:09;2;2;
46681;PMS5003;34101;53.430;-2.224;2023-11-22T14:56:37;0;0;
46681;PMS5003;34101;53.430;-2.224;2023-11-22T14:59:04;2;2;
46681;PMS5003;34101;53.430;-2.224;2023-11-22T15:01:31;2;2;
46681;PMS5003;34101;53.430;-2.224;2023-11-22T15:03:59;1;1;
46681;PMS5003;34101;53.430;-2.224;2023-11-22T15:06:27;1;1;
46681;PMS5003;34101;53.430;-2.224;2023-11-22T15:08:54;0;0;
46681;PMS5003;34101;53.430;-2.224;2023-11-22T15:11:22;2;2;
46681;PMS5003;34101;53.430;-2.224;2023-11-22T15:13:49;2;2;
46681;PMS5003;34101;53.430;-2.224;2023-11-22T15:16:17;2;2;
46681;PMS5003;34101;53.430;-2.224;2023-11-22T15:18:44;2;2;
46681;PMS5003;34101;53.430;-2.224;2023-11-22T15:21:11;4;2;
46681;PMS5003;34101;53.430;-2.224;2023-11-22T15:23:39;3;1;
46681;PMS5003;34101;53.430;-2.224;2023-11-22T15:26:06;1;1;
46681;PMS5003;34101;53.430;-2.224;2023-11-22T15:28:34;1;1;
46681;PMS5003;34101;53.430;-2.224;2023-11-22T15:31:01;1;1;
46681;PMS5003;34101;53.430;-2.224;2023-11-22T15:33:29;0;0;
46681;PMS5003;34101;53.430;-2.224;2023-11-22T15:35:56;2;0;
46681;PMS5003;34101;53.430;-2.224;2023-11-22T15:38:24;2;1;
46681;PMS5003;34101;53.430;-2.224;2023-11-22T15:40:51;1;1;
46681;PMS5003;34101;53.430;-2.224;2023-11-22T15:43:18;6;2;
46681;PMS5003;34101;53.430;-2.224;2023-11-22T15:45:46;2;2;
46681;PMS5003;34101;53.430;-2.224;2023-11-22T15:48:13;1;1;
46681;PMS5003;34101;53.430;-2.224;2023-11-22T15:50:41;3;1;
46681;PMS5003;34101;53.430;-2.224;2023-11-22T15:53:08;6;3;
46681;PMS5003;34101;53.430;-2.224;2023-11-22T15:55:35;5;2;
46681;PMS5003;34101;53.430;-2.224;2023-11-22T15:58:02;2;2;
46681;PMS5003;34101;53.430;-2.224;2023-11-22T16:00:30;3;3;
46681;PMS5003;34101;53.430;-2.224;2023-11-22T16:02:57;4;3;
46681;PMS5003;34101;53.430;-2.224;2023-11-22T16:05:25;3;2;
46681;PMS5003;34101;53.430;-2.224;2023-11-22T16:07:52;2;2;
46681;PMS5003;34101;53.430;-2.224;2023-11-22T16:10:19;2;1;
46681;PMS5003;34101;53.430;-2.224;2023-11-22T16:12:47;1;1;
46681;PMS5003;34101;53.430;-2.224;2023-11-22T16:15:14;1;1;
46681;PMS5003;34101;53.430;-2.224;2023-11-22T16:17:47;2;2;
46681;PMS5003;34101;53.430;-2.224;2023-11-22T16:20:14;2;0;
46681;PMS5003;34101;53.430;-2.224;2023-11-22T16:22:41;2;2;
46681;PMS5003;34101;53.430;-2.224;2023-11-22T16:25:10;1;1;
46681;PMS5003;34101;53.430;-2.224;2023-11-22T16:27:38;0;0;
46681;PMS5003;34101;53.430;-2.224;2023-11-22T16:30:07;2;2;